Aviation Digital Data Service (ADDS)

Output produced by METARs form (2055 UTC 22 June 2018)
found at http://aviationweather.gov/adds/metars/
 
KROC 221736Z 2218/2318 09008KT P6SM BKN140 
     FM230100 10006KT P6SM BKN045 
     FM230700 12009KT 6SM -SHRA OVC045 
     FM231200 11009KT 6SM -SHRA OVC025 
     FM231700 11009KT P6SM VCTS OVC025CB